createdAt,value
2022-08-17T00:00:42.958Z,20.10
2022-08-17T00:03:17.338Z,20.10
2022-08-17T00:05:48.434Z,20.10
2022-08-17T00:08:22.559Z,20.10
2022-08-17T00:10:51.540Z,20.10
2022-08-17T00:13:24.720Z,20.10
2022-08-17T00:15:55.871Z,20.00
2022-08-17T00:21:16.213Z,19.90
2022-08-17T00:26:45.238Z,19.90
2022-08-17T00:39:15.663Z,19.60
2022-08-17T00:44:12.987Z,19.70
2022-08-17T00:46:43.119Z,19.70
2022-08-17T00:49:14.420Z,19.60
2022-08-17T00:51:48.897Z,19.50
2022-08-17T00:56:54.535Z,19.50
2022-08-17T01:01:53.815Z,19.50
2022-08-17T01:06:53.748Z,19.50
2022-08-17T01:09:23.972Z,19.50
2022-08-17T01:19:22.212Z,19.50
2022-08-17T01:21:57.286Z,19.50
2022-08-17T01:31:58.428Z,19.30
2022-08-17T01:34:33.450Z,19.30
2022-08-17T01:37:12.620Z,19.30
2022-08-17T01:39:45.590Z,19.40
2022-08-17T01:42:25.643Z,19.30
2022-08-17T01:44:59.044Z,19.40
2022-08-17T01:49:57.922Z,19.30
2022-08-17T01:52:26.212Z,19.20
2022-08-17T02:12:37.900Z,19.00
2022-08-17T02:15:11.195Z,18.90
2022-08-17T02:20:11.455Z,22.90
2022-08-17T02:22:42.170Z,18.90
2022-08-17T02:25:14.733Z,18.80
2022-08-17T02:30:49.886Z,18.90
2022-08-17T02:53:02.544Z,18.60
2022-08-17T03:00:36.198Z,18.70
2022-08-17T03:03:10.915Z,18.60
2022-08-17T03:05:39.919Z,18.60
2022-08-17T03:08:11.683Z,18.50
2022-08-17T03:25:54.794Z,18.20
2022-08-17T03:28:25.327Z,18.20
2022-08-17T03:40:57.313Z,18.20
2022-08-17T03:43:31.985Z,18.30
2022-08-17T03:49:23.206Z,18.30
2022-08-17T03:52:08.765Z,18.20
2022-08-17T04:02:24.510Z,18.20
2022-08-17T04:07:24.086Z,18.20
2022-08-17T04:12:23.102Z,18.20
2022-08-17T04:14:55.018Z,18.20
2022-08-17T04:17:25.569Z,18.30
2022-08-17T04:25:05.310Z,18.50
2022-08-17T04:37:51.315Z,18.50
2022-08-17T04:40:38.433Z,18.50
2022-08-17T04:43:11.742Z,18.60
2022-08-17T04:45:55.469Z,18.60
2022-08-17T04:51:09.859Z,18.60
2022-08-17T04:53:40.144Z,18.50
2022-08-17T04:56:15.980Z,18.50
2022-08-17T04:58:45.892Z,18.40
2022-08-17T05:21:24.041Z,18.60
2022-08-17T05:31:30.701Z,18.80
2022-08-17T05:39:16.707Z,19.00
2022-08-17T05:46:48.673Z,19.10
2022-08-17T05:49:20.293Z,19.20
2022-08-17T05:52:02.466Z,19.20
2022-08-17T05:57:20.943Z,19.30
2022-08-17T06:00:05.311Z,19.40
2022-08-17T06:02:47.663Z,19.40
2022-08-17T06:05:39.888Z,19.40
2022-08-17T06:08:17.636Z,19.60
2022-08-17T06:10:53.945Z,19.70
2022-08-17T06:13:39.955Z,19.90
2022-08-17T06:16:33.231Z,20.00
2022-08-17T06:21:37.428Z,20.20
2022-08-17T06:24:12.340Z,20.30
2022-08-17T06:26:44.299Z,20.40
2022-08-17T06:29:24.951Z,20.50
2022-08-17T06:37:05.626Z,20.70
2022-08-17T06:39:44.731Z,20.80
2022-08-17T06:43:02.292Z,20.90
2022-08-17T06:45:18.152Z,21.00
2022-08-17T06:47:54.201Z,21.10
2022-08-17T06:50:33.507Z,21.20
2022-08-17T06:53:12.023Z,21.30
2022-08-17T06:55:47.293Z,21.30
2022-08-17T07:00:49.169Z,21.50
2022-08-17T07:05:55.416Z,21.70
2022-08-17T07:08:35.154Z,21.80
2022-08-17T07:13:44.587Z,21.90
2022-08-17T07:16:25.548Z,22.00
2022-08-17T07:18:56.570Z,22.10
2022-08-17T07:21:42.227Z,22.20
2022-08-17T07:24:31.720Z,22.30
2022-08-17T07:27:10.167Z,22.30
2022-08-17T07:29:42.678Z,22.40
2022-08-17T07:32:12.612Z,22.50
2022-08-17T07:35:02.883Z,22.60
2022-08-17T07:40:23.064Z,22.80
2022-08-17T07:43:21.990Z,22.90
2022-08-17T07:46:34.269Z,23.00
2022-08-17T07:49:18.626Z,23.00
2022-08-17T07:52:47.795Z,23.10
2022-08-17T07:57:42.566Z,23.20
2022-08-17T08:00:34.316Z,23.30
2022-08-17T08:03:13.702Z,23.30
2022-08-17T08:08:32.835Z,23.60
2022-08-17T08:11:07.210Z,23.70
2022-08-17T08:16:25.119Z,23.90
2022-08-17T08:18:57.795Z,24.00
2022-08-17T08:21:44.414Z,24.00
2022-08-17T08:24:32.865Z,23.50
2022-08-17T08:27:14.100Z,24.20
2022-08-17T08:29:52.936Z,24.20
2022-08-17T08:32:30.222Z,24.20
2022-08-17T08:35:04.690Z,24.30
2022-08-17T08:37:43.196Z,24.50
2022-08-17T08:40:33.596Z,24.40
2022-08-17T08:43:12.718Z,24.60
2022-08-17T08:45:51.004Z,24.70
2022-08-17T08:48:53.711Z,24.70
2022-08-17T08:51:35.930Z,24.80
2022-08-17T08:54:12.246Z,24.80
2022-08-17T08:57:04.974Z,25.00
2022-08-17T08:59:45.211Z,25.10
2022-08-17T09:02:42.005Z,25.30
2022-08-17T09:05:19.084Z,25.30
2022-08-17T09:07:57.361Z,25.30
2022-08-17T09:10:30.707Z,25.30
2022-08-17T09:13:11.891Z,25.30
2022-08-17T09:15:45.559Z,25.50
2022-08-17T09:19:02.914Z,25.50
2022-08-17T09:21:18.244Z,25.50
2022-08-17T09:24:02.375Z,25.60
2022-08-17T09:26:35.826Z,25.70
2022-08-17T09:29:08.662Z,25.80
2022-08-17T09:31:49.466Z,25.90
2022-08-17T09:34:21.273Z,26.00
2022-08-17T09:37:03.748Z,26.10
2022-08-17T09:39:37.546Z,26.10
2022-08-17T09:42:11.590Z,26.30
2022-08-17T09:44:43.917Z,26.50
2022-08-17T09:47:21.177Z,26.50
2022-08-17T09:49:52.546Z,26.50
2022-08-17T09:52:24.473Z,26.70
2022-08-17T09:54:55.658Z,26.80
2022-08-17T09:57:35.404Z,26.90
2022-08-17T10:00:17.046Z,27.10
2022-08-17T10:03:17.251Z,27.00
2022-08-17T10:05:56.642Z,27.20
2022-08-17T10:08:35.030Z,27.20
2022-08-17T10:11:54.465Z,27.20
2022-08-17T10:14:37.595Z,27.40
2022-08-17T10:17:20.447Z,27.60
2022-08-17T10:19:58.633Z,27.50
2022-08-17T10:22:59.665Z,27.60
2022-08-17T10:34:17.578Z,28.10
2022-08-17T10:36:55.899Z,28.20
2022-08-17T10:42:49.076Z,28.30
2022-08-17T10:45:21.133Z,28.30
2022-08-17T10:48:05.751Z,28.30
2022-08-17T10:51:03.773Z,28.30
2022-08-17T10:54:02.020Z,28.50
2022-08-17T10:56:47.312Z,28.50
2022-08-17T10:59:49.291Z,28.70
2022-08-17T11:02:28.253Z,28.80
2022-08-17T11:05:13.280Z,28.70
2022-08-17T11:07:58.622Z,28.90
2022-08-17T11:10:51.987Z,29.20
2022-08-17T11:13:32.170Z,29.40
2022-08-17T11:16:12.530Z,29.50
2022-08-17T11:22:33.335Z,29.30
2022-08-17T11:25:16.374Z,29.30
2022-08-17T11:27:53.752Z,29.20
2022-08-17T11:30:50.431Z,29.20
2022-08-17T11:33:58.879Z,29.20
2022-08-17T11:37:02.032Z,29.30
2022-08-17T11:39:50.708Z,29.60
2022-08-17T11:42:32.783Z,29.60
2022-08-17T11:45:31.875Z,30.20
2022-08-17T11:48:28.859Z,30.20
2022-08-17T11:51:18.691Z,30.30
2022-08-17T11:54:31.085Z,30.10
2022-08-17T11:56:52.962Z,29.90
2022-08-17T11:59:59.787Z,29.80
2022-08-17T12:02:48.184Z,29.80
2022-08-17T12:05:34.223Z,30.10
2022-08-17T12:08:18.649Z,30.20
2022-08-17T12:11:08.082Z,30.50
2022-08-17T12:13:46.491Z,30.50
2022-08-17T12:16:17.862Z,30.60
2022-08-17T12:18:54.210Z,30.70
2022-08-17T12:21:43.717Z,30.80
2022-08-17T12:24:20.939Z,30.80
2022-08-17T12:26:53.750Z,30.90
2022-08-17T12:29:35.525Z,31.10
2022-08-17T12:32:15.507Z,31.40
2022-08-17T12:34:47.438Z,31.20
2022-08-17T12:37:20.114Z,31.30
2022-08-17T12:39:54.904Z,31.30
2022-08-17T12:49:54.197Z,32.00
2022-08-17T12:52:25.088Z,32.90
2022-08-17T12:54:57.325Z,32.30
2022-08-17T12:57:29.275Z,32.30
2022-08-17T13:00:01.648Z,32.30
2022-08-17T13:02:41.715Z,32.40
2022-08-17T13:05:23.437Z,32.40
2022-08-17T13:07:53.180Z,32.40
2022-08-17T13:10:31.639Z,32.30
2022-08-17T13:13:06.360Z,32.20
2022-08-17T13:15:44.895Z,32.00
2022-08-17T13:18:39.586Z,32.10
2022-08-17T13:21:19.489Z,32.20
2022-08-17T13:23:57.663Z,32.20
2022-08-17T13:26:34.479Z,32.20
2022-08-17T13:31:51.901Z,32.20
2022-08-17T13:34:34.244Z,32.40
2022-08-17T13:37:27.134Z,33.00
2022-08-17T13:39:58.944Z,33.20
2022-08-17T13:42:51.680Z,33.20
2022-08-17T13:45:45.185Z,32.90
2022-08-17T13:48:24.736Z,33.00
2022-08-17T13:51:14.168Z,32.90
2022-08-17T13:54:01.578Z,32.40
2022-08-17T13:56:39.670Z,32.30
2022-08-17T13:59:12.484Z,31.90
2022-08-17T14:01:43.923Z,31.90
2022-08-17T14:04:13.925Z,33.20
2022-08-17T14:06:54.497Z,31.90
2022-08-17T14:09:31.365Z,31.50
2022-08-17T14:12:02.951Z,31.50
2022-08-17T14:14:31.804Z,31.60
2022-08-17T14:19:29.281Z,31.70
2022-08-17T14:24:31.229Z,32.80
2022-08-17T14:29:30.405Z,33.70
2022-08-17T14:32:00.179Z,34.30
2022-08-17T14:41:58.448Z,35.10
2022-08-17T14:44:26.527Z,35.10
2022-08-17T14:49:24.003Z,35.00
2022-08-17T14:59:54.806Z,35.40
2022-08-17T15:02:29.758Z,35.40
2022-08-17T15:05:00.887Z,36.00
2022-08-17T15:20:16.079Z,36.80
2022-08-17T15:22:45.730Z,36.70
2022-08-17T15:25:15.177Z,35.40
2022-08-17T15:30:14.814Z,34.40
2022-08-17T15:43:07.568Z,33.50
2022-08-17T15:48:04.494Z,33.40
2022-08-17T15:50:32.585Z,35.00
2022-08-17T15:53:02.206Z,34.60
2022-08-17T15:55:32.214Z,34.50
2022-08-17T15:58:00.800Z,34.80
2022-08-17T16:00:30.716Z,35.00
2022-08-17T16:03:44.481Z,35.20
2022-08-17T16:08:21.245Z,34.80
2022-08-17T16:10:49.768Z,34.40
2022-08-17T16:13:18.614Z,34.10
2022-08-17T16:15:57.074Z,33.50
2022-08-17T16:18:30.987Z,33.30
2022-08-17T16:21:19.848Z,32.60
2022-08-17T16:23:48.029Z,32.10
2022-08-17T16:26:16.330Z,32.10
2022-08-17T16:28:44.438Z,32.00
2022-08-17T16:31:14.326Z,31.70
2022-08-17T16:33:42.859Z,31.90
2022-08-17T16:36:31.970Z,31.90
2022-08-17T16:39:00.682Z,31.90
2022-08-17T16:41:45.083Z,31.90
2022-08-17T16:44:15.452Z,31.90
2022-08-17T16:46:46.092Z,31.90
2022-08-17T16:49:24.423Z,31.90
2022-08-17T16:52:05.326Z,31.90
2022-08-17T16:54:33.407Z,31.90
2022-08-17T16:57:03.108Z,31.80
2022-08-17T16:59:41.969Z,31.40
2022-08-17T17:02:14.856Z,31.40
2022-08-17T17:04:49.187Z,31.30
2022-08-17T17:07:34.717Z,31.20
2022-08-17T17:10:08.736Z,31.10
2022-08-17T17:13:02.547Z,30.90
2022-08-17T17:15:33.841Z,30.80
2022-08-17T17:18:07.224Z,30.60
2022-08-17T17:20:43.671Z,30.40
2022-08-17T17:23:24.748Z,30.30
2022-08-17T17:25:59.497Z,30.30
2022-08-17T17:28:35.260Z,30.30
2022-08-17T17:31:08.791Z,30.20
2022-08-17T17:33:48.975Z,30.20
2022-08-17T17:36:25.504Z,30.10
2022-08-17T17:38:59.243Z,30.00
2022-08-17T17:41:34.071Z,29.90
2022-08-17T17:44:06.393Z,29.80
2022-08-17T17:46:39.853Z,29.80
2022-08-17T17:52:06.238Z,29.60
2022-08-17T17:54:52.341Z,29.40
2022-08-17T17:57:26.516Z,29.40
2022-08-17T18:00:05.102Z,29.30
2022-08-17T18:02:53.115Z,29.30
2022-08-17T18:05:39.401Z,29.00
2022-08-17T18:08:18.250Z,28.90
2022-08-17T18:10:54.724Z,28.80
2022-08-17T18:13:32.573Z,28.80
2022-08-17T18:26:57.509Z,28.30
2022-08-17T18:29:46.801Z,28.10
2022-08-17T18:32:32.662Z,28.10
2022-08-17T18:35:28.912Z,27.90
2022-08-17T18:38:21.667Z,27.80
2022-08-17T18:41:04.271Z,27.60
2022-08-17T18:43:44.137Z,27.50
2022-08-17T18:46:29.036Z,27.40
2022-08-17T18:49:05.297Z,27.20
2022-08-17T18:51:41.935Z,27.00
2022-08-17T18:54:24.284Z,27.00
2022-08-17T18:56:55.450Z,26.90
2022-08-17T19:05:13.298Z,26.50
2022-08-17T19:07:45.543Z,26.40
2022-08-17T19:10:22.415Z,26.50
2022-08-17T19:13:00.853Z,26.40
2022-08-17T19:15:35.779Z,26.50
2022-08-17T19:18:15.103Z,26.50
2022-08-17T19:20:47.087Z,26.40
2022-08-17T19:23:19.756Z,26.30
2022-08-17T19:25:52.699Z,26.30
2022-08-17T19:28:24.508Z,26.10
2022-08-17T19:30:57.685Z,25.80
2022-08-17T19:33:26.386Z,25.80
2022-08-17T19:36:06.608Z,25.70
2022-08-17T19:38:45.670Z,25.60
2022-08-17T19:41:23.271Z,25.60
2022-08-17T19:44:20.446Z,25.60
2022-08-17T19:46:56.112Z,25.50
2022-08-17T19:49:40.544Z,25.40
2022-08-17T19:52:24.901Z,25.40
2022-08-17T19:54:59.390Z,25.50
2022-08-17T19:57:41.322Z,25.50
2022-08-17T20:00:13.100Z,25.50
2022-08-17T20:02:50.439Z,25.50
2022-08-17T20:05:22.555Z,25.50
2022-08-17T20:07:55.515Z,25.40
2022-08-17T20:10:31.552Z,25.50
2022-08-17T20:13:11.626Z,25.50
2022-08-17T20:15:43.389Z,25.60
2022-08-17T20:18:19.998Z,25.60
2022-08-17T20:20:57.441Z,25.70
2022-08-17T20:23:40.277Z,25.80
2022-08-17T20:26:19.471Z,25.70
2022-08-17T20:29:37.283Z,25.70
2022-08-17T20:32:25.501Z,25.70
2022-08-17T20:35:17.237Z,25.70
2022-08-17T20:37:54.883Z,25.60
2022-08-17T20:40:27.520Z,25.60
2022-08-17T20:45:51.791Z,25.60
2022-08-17T20:48:37.461Z,28.10
2022-08-17T20:51:22.921Z,25.60
2022-08-17T20:54:23.466Z,25.60
2022-08-17T20:56:57.182Z,25.60
2022-08-17T21:00:14.079Z,25.60
2022-08-17T21:02:45.812Z,25.60
2022-08-17T21:05:57.418Z,25.60
2022-08-17T21:08:31.650Z,25.60
2022-08-17T21:11:01.062Z,25.60
2022-08-17T21:13:57.016Z,25.60
2022-08-17T21:16:41.186Z,25.60
2022-08-17T21:19:23.131Z,25.60
2022-08-17T21:22:02.269Z,25.50
2022-08-17T21:24:44.782Z,25.60
2022-08-17T21:27:27.252Z,25.40
2022-08-17T21:30:16.489Z,25.40
2022-08-17T21:33:20.987Z,25.30
2022-08-17T21:35:52.871Z,25.30
2022-08-17T21:38:24.169Z,25.20
2022-08-17T21:40:53.795Z,25.20
2022-08-17T21:43:25.760Z,25.20
2022-08-17T21:46:00.873Z,25.20
2022-08-17T21:48:30.512Z,25.20
2022-08-17T21:51:03.908Z,25.20
2022-08-17T21:53:39.911Z,25.10
2022-08-17T21:56:09.307Z,25.10
2022-08-17T21:58:40.533Z,25.10
2022-08-17T22:01:24.872Z,25.00
2022-08-17T22:04:00.324Z,25.00
2022-08-17T22:06:34.594Z,25.00
2022-08-17T22:09:12.936Z,25.00
2022-08-17T22:11:53.735Z,24.90
2022-08-17T22:14:25.679Z,25.00
2022-08-17T22:17:18.371Z,25.00
2022-08-17T22:19:50.713Z,25.00
2022-08-17T22:22:32.239Z,24.90
2022-08-17T22:25:03.368Z,25.00
2022-08-17T22:27:55.523Z,24.80
2022-08-17T22:30:35.911Z,23.60
2022-08-17T22:33:32.494Z,22.60
2022-08-17T22:36:22.746Z,21.70
2022-08-17T22:38:54.298Z,21.30
2022-08-17T22:41:43.657Z,21.40
2022-08-17T22:44:23.145Z,21.50
2022-08-17T22:46:56.539Z,21.60
2022-08-17T22:49:29.221Z,21.60
2022-08-17T22:52:24.448Z,21.60
2022-08-17T22:55:33.033Z,21.00
2022-08-17T23:00:49.743Z,20.30
2022-08-17T23:03:20.620Z,20.00
2022-08-17T23:06:03.401Z,19.90
2022-08-17T23:08:34.640Z,19.80
2022-08-17T23:16:02.533Z,19.90
2022-08-17T23:20:59.355Z,18.30
2022-08-17T23:25:55.951Z,18.20
2022-08-17T23:30:55.196Z,18.10
2022-08-17T23:33:29.896Z,18.20
2022-08-17T23:38:28.910Z,18.20
2022-08-17T23:51:09.192Z,18.20
2022-08-17T23:53:38.510Z,18.30
2022-08-17T23:56:10.433Z,18.30
2022-08-17T23:58:43.162Z,18.40
